createdAt,value
2022-12-13T00:01:26.208Z,25.13
2022-12-13T00:03:54.313Z,19.73
2022-12-13T00:06:20.939Z,22.85
2022-12-13T00:08:47.523Z,18.92
2022-12-13T00:11:14.714Z,24.90
2022-12-13T00:13:42.641Z,21.75
2022-12-13T00:16:14.185Z,30.15
2022-12-13T00:18:41.166Z,19.98
2022-12-13T00:21:09.915Z,19.13
2022-12-13T00:23:36.531Z,18.55
2022-12-13T00:26:08.235Z,16.80
2022-12-13T00:28:34.824Z,17.83
2022-12-13T00:31:26.909Z,34.83
2022-12-13T00:33:49.227Z,17.13
2022-12-13T00:36:16.340Z,21.70
2022-12-13T00:38:43.351Z,22.35
2022-12-13T00:41:20.404Z,20.77
2022-12-13T00:43:47.641Z,18.13
2022-12-13T00:46:16.514Z,23.02
2022-12-13T00:48:44.008Z,20.38
2022-12-13T00:51:11.939Z,23.95
2022-12-13T00:53:39.068Z,21.15
2022-12-13T00:56:11.315Z,21.60
2022-12-13T00:58:38.023Z,22.40
2022-12-13T01:01:09.980Z,19.38
2022-12-13T01:03:37.066Z,33.60
2022-12-13T01:06:15.433Z,24.88
2022-12-13T01:08:43.399Z,22.58
2022-12-13T01:11:10.649Z,21.30
2022-12-13T01:13:38.159Z,23.27
2022-12-13T01:16:06.891Z,15.73
2022-12-13T01:18:33.606Z,15.77
2022-12-13T01:21:03.216Z,15.20
2022-12-13T01:23:30.214Z,27.70
2022-12-13T01:25:57.251Z,15.82
2022-12-13T01:28:24.893Z,17.08
2022-12-13T01:30:59.532Z,14.70
2022-12-13T01:33:27.308Z,15.35
2022-12-13T01:35:54.621Z,14.00
2022-12-13T01:38:26.380Z,14.50
2022-12-13T01:40:59.429Z,18.67
2022-12-13T01:43:29.790Z,14.73
2022-12-13T01:45:56.437Z,15.30
2022-12-13T01:48:29.345Z,18.00
2022-12-13T01:51:00.388Z,15.57
2022-12-13T01:53:31.570Z,16.10
2022-12-13T01:56:02.358Z,17.05
2022-12-13T01:58:29.408Z,14.43
2022-12-13T02:00:57.737Z,19.55
2022-12-13T02:03:24.347Z,14.82
2022-12-13T02:06:01.085Z,25.15
2022-12-13T02:08:29.614Z,18.48
2022-12-13T02:10:57.199Z,13.57
2022-12-13T02:13:23.944Z,14.90
2022-12-13T02:16:03.499Z,19.25
2022-12-13T02:18:30.057Z,19.02
2022-12-13T02:21:01.201Z,18.20
2022-12-13T02:23:39.351Z,18.58
2022-12-13T02:26:43.634Z,18.42
2022-12-13T02:29:42.555Z,19.48
2022-12-13T02:32:44.896Z,14.23
2022-12-13T02:35:30.664Z,17.67
2022-12-13T02:38:03.056Z,19.95
2022-12-13T02:40:44.702Z,16.35
2022-12-13T02:43:17.487Z,19.38
2022-12-13T02:45:51.405Z,14.45
2022-12-13T02:48:25.259Z,17.17
2022-12-13T02:50:53.416Z,18.88
2022-12-13T02:53:22.462Z,16.48
2022-12-13T02:55:49.569Z,17.60
2022-12-13T02:58:22.160Z,18.20
2022-12-13T03:01:28.345Z,17.35
2022-12-13T03:04:58.048Z,25.40
2022-12-13T03:07:32.181Z,17.33
2022-12-13T03:10:06.243Z,20.45
2022-12-13T03:13:23.124Z,15.60
2022-12-13T03:15:59.866Z,16.70
2022-12-13T03:18:28.182Z,17.67
2022-12-13T03:21:00.254Z,12.52
2022-12-13T03:23:27.685Z,13.80
2022-12-13T03:25:56.459Z,14.35
2022-12-13T03:28:24.058Z,14.38
2022-12-13T03:30:50.836Z,26.45
2022-12-13T03:33:17.566Z,13.75
2022-12-13T03:35:45.819Z,13.85
2022-12-13T03:38:22.466Z,16.15
2022-12-13T03:40:55.727Z,16.13
2022-12-13T03:43:23.511Z,13.45
2022-12-13T03:45:51.501Z,13.82
2022-12-13T03:48:22.773Z,14.88
2022-12-13T03:50:50.980Z,13.95
2022-12-13T03:53:22.401Z,21.20
2022-12-13T03:56:00.813Z,14.52
2022-12-13T03:58:36.221Z,16.67
2022-12-13T04:01:08.938Z,28.88
2022-12-13T04:03:37.022Z,16.90
2022-12-13T04:06:04.737Z,12.35
2022-12-13T04:08:31.493Z,16.85
2022-12-13T04:10:58.159Z,24.05
2022-12-13T04:13:33.954Z,17.52
2022-12-13T04:16:01.803Z,13.30
2022-12-13T04:18:28.485Z,17.73
2022-12-13T04:20:55.079Z,17.63
2022-12-13T04:23:21.627Z,12.20
2022-12-13T04:25:48.242Z,21.48
2022-12-13T04:28:22.108Z,13.48
2022-12-13T04:30:52.886Z,24.02
2022-12-13T04:33:24.388Z,27.65
2022-12-13T04:35:51.761Z,13.95
2022-12-13T04:38:18.758Z,14.88
2022-12-13T04:40:45.769Z,13.30
2022-12-13T04:43:12.374Z,15.50
2022-12-13T04:45:39.042Z,15.63
2022-12-13T04:48:05.945Z,14.88
2022-12-13T04:50:32.934Z,14.23
2022-12-13T04:52:59.723Z,14.38
2022-12-13T04:55:26.452Z,15.95
2022-12-13T04:57:53.106Z,21.20
2022-12-13T05:00:22.007Z,14.20
2022-12-13T05:02:49.041Z,13.30
2022-12-13T05:05:15.942Z,12.07
2022-12-13T05:07:43.080Z,23.23
2022-12-13T05:10:11.142Z,27.88
2022-12-13T05:12:37.975Z,19.33
2022-12-13T05:15:05.502Z,12.48
2022-12-13T05:17:32.089Z,19.90
2022-12-13T05:19:58.694Z,9.68
2022-12-13T05:22:25.722Z,13.80
2022-12-13T05:24:52.325Z,12.75
2022-12-13T05:27:23.667Z,14.68
2022-12-13T05:29:53.745Z,21.23
2022-12-13T05:32:31.044Z,10.48
2022-12-13T05:34:57.723Z,11.57
2022-12-13T05:37:24.304Z,32.08
2022-12-13T05:39:50.942Z,13.60
2022-12-13T05:42:17.499Z,11.98
2022-12-13T05:44:44.049Z,13.48
2022-12-13T05:47:10.668Z,10.95
2022-12-13T05:49:37.255Z,9.98
2022-12-13T05:52:06.323Z,9.57
2022-12-13T05:54:32.884Z,10.13
2022-12-13T05:56:59.472Z,10.05
2022-12-13T05:59:26.032Z,13.40
2022-12-13T06:01:52.789Z,25.08
2022-12-13T06:04:22.256Z,25.73
2022-12-13T06:06:50.914Z,13.48
2022-12-13T06:09:18.013Z,17.80
2022-12-13T06:11:44.649Z,25.85
2022-12-13T06:14:22.556Z,26.08
2022-12-13T06:16:50.997Z,21.30
2022-12-13T06:19:17.884Z,27.52
2022-12-13T06:21:46.564Z,11.20
2022-12-13T06:24:18.152Z,24.10
2022-12-13T06:26:45.853Z,18.85
2022-12-13T06:29:24.088Z,22.65
2022-12-13T06:32:02.275Z,11.02
2022-12-13T06:34:34.735Z,10.15
2022-12-13T06:37:04.817Z,24.27
2022-12-13T06:39:33.043Z,17.63
2022-12-13T06:42:01.563Z,10.25
2022-12-13T06:44:28.257Z,21.15
2022-12-13T06:46:54.847Z,20.10
2022-12-13T06:49:41.064Z,13.75
2022-12-13T06:52:10.047Z,14.20
2022-12-13T06:54:36.618Z,11.43
2022-12-13T06:57:03.265Z,22.35
2022-12-13T06:59:29.843Z,12.50
2022-12-13T07:02:03.265Z,16.27
2022-12-13T07:04:31.575Z,9.35
2022-12-13T07:07:01.545Z,12.45
2022-12-13T07:09:32.678Z,12.85
2022-12-13T07:11:59.738Z,8.95
2022-12-13T07:14:26.920Z,15.10
2022-12-13T07:16:57.944Z,10.80
2022-12-13T07:19:35.171Z,10.80
2022-12-13T07:22:02.895Z,11.10
2022-12-13T07:24:29.440Z,12.15
2022-12-13T07:26:56.001Z,28.02
2022-12-13T07:29:22.956Z,15.65
2022-12-13T07:31:49.763Z,10.77
2022-12-13T07:34:16.514Z,18.60
2022-12-13T07:36:43.242Z,10.07
2022-12-13T07:39:09.808Z,10.88
2022-12-13T07:41:36.402Z,13.60
2022-12-13T07:44:03.179Z,21.25
2022-12-13T07:46:32.928Z,11.75
2022-12-13T07:49:02.835Z,12.88
2022-12-13T07:51:29.622Z,10.25
2022-12-13T07:53:57.115Z,11.00
2022-12-13T07:56:23.674Z,10.85
2022-12-13T07:58:50.252Z,11.85
2022-12-13T08:01:18.279Z,10.98
2022-12-13T08:03:47.374Z,11.43
2022-12-13T08:06:14.134Z,9.45
2022-12-13T08:08:40.916Z,20.98
2022-12-13T08:11:10.335Z,11.60
2022-12-13T08:13:38.600Z,13.20
2022-12-13T08:16:27.136Z,9.38
2022-12-13T08:19:01.045Z,9.43
2022-12-13T08:21:53.202Z,10.02
2022-12-13T08:24:15.908Z,12.95
2022-12-13T08:26:42.549Z,8.98
2022-12-13T08:29:09.239Z,11.68
2022-12-13T08:31:35.869Z,9.75
2022-12-13T08:34:02.427Z,14.82
2022-12-13T08:36:29.007Z,9.48
2022-12-13T08:38:56.814Z,9.77
2022-12-13T08:41:23.478Z,19.88
2022-12-13T08:43:50.725Z,9.77
2022-12-13T08:46:17.299Z,10.70
2022-12-13T08:48:44.522Z,14.02
2022-12-13T08:51:24.539Z,13.70
2022-12-13T08:53:52.997Z,17.13
2022-12-13T08:56:37.461Z,13.05
2022-12-13T08:59:04.109Z,13.10
2022-12-13T09:01:31.108Z,9.57
2022-12-13T09:03:57.712Z,25.23
2022-12-13T09:06:24.301Z,9.88
2022-12-13T09:08:53.497Z,12.50
2022-12-13T09:11:22.437Z,9.43
2022-12-13T09:14:01.369Z,9.63
2022-12-13T09:16:30.380Z,10.05
2022-12-13T09:22:45.291Z,10.27
2022-12-13T09:25:14.657Z,26.27
2022-12-13T09:27:41.659Z,9.57
2022-12-13T09:30:13.009Z,11.18
2022-12-13T09:32:41.189Z,8.05
2022-12-13T09:35:08.888Z,7.97
2022-12-13T09:37:38.693Z,10.20
2022-12-13T09:40:26.108Z,9.90
2022-12-13T09:43:11.751Z,8.38
2022-12-13T09:45:43.217Z,9.65
2022-12-13T09:48:15.552Z,16.75
2022-12-13T09:50:57.654Z,10.52
2022-12-13T09:53:25.814Z,8.13
2022-12-13T09:56:10.773Z,11.43
2022-12-13T09:58:38.176Z,18.10
2022-12-13T10:01:05.993Z,10.07
2022-12-13T10:03:32.816Z,9.90
2022-12-13T10:06:22.679Z,8.75
2022-12-13T10:08:59.341Z,8.27
2022-12-13T10:11:31.893Z,9.55
2022-12-13T10:14:05.946Z,7.68
2022-12-13T10:16:36.124Z,12.20
2022-12-13T10:19:31.839Z,10.98
2022-12-13T10:22:02.295Z,24.10
2022-12-13T10:24:57.020Z,11.75
2022-12-13T10:27:36.569Z,9.05
2022-12-13T10:30:08.636Z,8.77
2022-12-13T10:32:59.662Z,8.50
2022-12-13T10:35:27.839Z,17.73
2022-12-13T10:38:04.342Z,9.80
2022-12-13T10:40:31.842Z,8.88
2022-12-13T10:43:18.222Z,8.30
2022-12-13T10:46:00.539Z,9.63
2022-12-13T10:48:40.232Z,20.48
2022-12-13T10:51:09.844Z,11.55
2022-12-13T10:53:47.823Z,8.02
2022-12-13T10:56:23.323Z,10.02
2022-12-13T10:59:13.273Z,10.43
2022-12-13T11:01:44.162Z,14.52
2022-12-13T11:04:31.554Z,8.82
2022-12-13T11:07:00.944Z,13.27
2022-12-13T11:09:38.865Z,10.20
2022-12-13T11:12:18.626Z,8.48
2022-12-13T11:14:54.196Z,12.55
2022-12-13T11:17:24.923Z,19.42
2022-12-13T11:19:56.092Z,10.13
2022-12-13T11:22:32.123Z,7.65
2022-12-13T11:25:18.142Z,8.18
2022-12-13T11:28:27.057Z,7.22
2022-12-13T11:31:19.154Z,8.07
2022-12-13T11:34:25.504Z,19.02
2022-12-13T11:36:54.866Z,9.45
2022-12-13T11:39:43.514Z,9.05
2022-12-13T11:42:26.994Z,7.95
2022-12-13T11:45:11.811Z,8.15
2022-12-13T11:47:58.431Z,12.90
2022-12-13T11:50:45.748Z,21.35
2022-12-13T11:53:20.875Z,8.18
2022-12-13T11:56:05.913Z,7.75
2022-12-13T11:59:03.084Z,9.40
2022-12-13T12:01:39.331Z,12.40
2022-12-13T12:04:30.209Z,8.27
2022-12-13T12:07:38.312Z,8.50
2022-12-13T12:10:13.964Z,7.72
2022-12-13T12:12:48.557Z,8.07
2022-12-13T12:15:33.215Z,8.48
2022-12-13T12:18:16.350Z,8.20
2022-12-13T12:20:51.926Z,7.53
2022-12-13T12:23:53.588Z,9.27
2022-12-13T12:26:45.198Z,8.18
2022-12-13T12:29:32.899Z,8.90
2022-12-13T12:32:28.604Z,11.70
2022-12-13T12:34:58.219Z,16.48
2022-12-13T12:37:30.231Z,8.07
2022-12-13T12:40:52.311Z,11.02
2022-12-13T12:43:21.108Z,11.80
2022-12-13T12:46:12.173Z,9.95
2022-12-13T12:49:27.695Z,11.65
2022-12-13T12:52:14.842Z,12.95
2022-12-13T12:55:02.924Z,8.48
2022-12-13T12:57:32.593Z,8.93
2022-12-13T13:00:16.087Z,7.75
2022-12-13T13:02:51.454Z,8.57
2022-12-13T13:05:30.808Z,8.35
2022-12-13T13:08:09.416Z,8.65
2022-12-13T13:10:39.255Z,10.07
2022-12-13T13:13:11.944Z,14.73
2022-12-13T13:15:39.851Z,8.60
2022-12-13T13:18:43.119Z,9.45
2022-12-13T13:21:25.666Z,8.18
2022-12-13T13:24:07.815Z,8.23
2022-12-13T13:26:40.307Z,7.72
2022-12-13T13:29:27.308Z,9.70
2022-12-13T13:32:28.534Z,10.80
2022-12-13T13:35:28.420Z,8.75
2022-12-13T13:37:55.408Z,18.00
2022-12-13T13:40:34.323Z,14.77
2022-12-13T13:43:06.471Z,8.38
2022-12-13T13:45:54.309Z,7.97
2022-12-13T13:48:26.847Z,7.65
2022-12-13T13:51:20.762Z,13.68
2022-12-13T13:54:21.027Z,15.52
2022-12-13T13:56:59.482Z,8.40
2022-12-13T13:59:59.831Z,10.60
2022-12-13T14:02:29.177Z,10.27
2022-12-13T14:05:16.783Z,10.15
2022-12-13T14:08:01.977Z,13.63
2022-12-13T14:10:49.477Z,20.00
2022-12-13T14:13:37.644Z,9.05
2022-12-13T14:16:28.708Z,8.30
2022-12-13T14:19:01.555Z,15.45
2022-12-13T14:22:08.069Z,8.75
2022-12-13T14:24:53.172Z,11.88
2022-12-13T14:27:48.493Z,10.05
2022-12-13T14:30:28.303Z,10.48
2022-12-13T14:32:56.753Z,13.85
2022-12-13T14:35:28.888Z,14.27
2022-12-13T14:38:06.711Z,8.05
2022-12-13T14:40:47.084Z,12.10
2022-12-13T14:43:34.303Z,8.27
2022-12-13T14:46:04.479Z,7.30
2022-12-13T14:48:37.313Z,8.18
2022-12-13T14:51:04.711Z,9.00
2022-12-13T14:53:42.654Z,10.45
2022-12-13T14:56:28.552Z,8.27
2022-12-13T14:59:03.727Z,9.73
2022-12-13T15:01:33.159Z,11.35
2022-12-13T15:04:21.769Z,15.25
2022-12-13T15:07:03.193Z,11.48
2022-12-13T15:09:31.031Z,8.20
2022-12-13T15:12:23.664Z,11.23
2022-12-13T15:14:50.299Z,8.57
2022-12-13T15:17:27.596Z,9.85
2022-12-13T15:19:54.253Z,8.98
2022-12-13T15:22:21.000Z,7.38
2022-12-13T15:24:48.957Z,9.38
2022-12-13T15:27:17.889Z,7.40
2022-12-13T15:29:47.312Z,9.90
2022-12-13T15:32:18.992Z,8.25
2022-12-13T15:34:49.395Z,9.52
2022-12-13T15:37:30.496Z,11.40
2022-12-13T15:40:06.351Z,7.97
2022-12-13T15:42:36.583Z,21.70
2022-12-13T15:45:06.443Z,12.38
2022-12-13T15:47:33.370Z,8.05
2022-12-13T15:50:05.920Z,12.50
2022-12-13T15:52:38.466Z,12.60
2022-12-13T15:55:10.675Z,12.52
2022-12-13T15:57:58.048Z,19.00
2022-12-13T16:00:31.004Z,13.80
2022-12-13T16:03:08.962Z,19.27
2022-12-13T16:05:40.556Z,11.07
2022-12-13T16:08:16.575Z,7.70
2022-12-13T16:10:51.145Z,15.98
2022-12-13T16:13:34.207Z,8.25
2022-12-13T16:16:26.488Z,6.88
2022-12-13T16:18:57.492Z,12.93
2022-12-13T16:21:25.302Z,9.52
2022-12-13T16:23:52.088Z,10.70
2022-12-13T16:26:25.550Z,5.82
2022-12-13T16:28:53.610Z,7.60
2022-12-13T16:31:25.286Z,13.13
2022-12-13T16:33:52.430Z,11.65
2022-12-13T16:36:19.109Z,10.95
2022-12-13T16:38:45.886Z,9.98
2022-12-13T16:41:14.520Z,8.10
2022-12-13T16:43:58.695Z,7.30
2022-12-13T16:47:12.340Z,8.48
2022-12-13T16:49:25.608Z,8.48
2022-12-13T16:51:52.518Z,13.52
2022-12-13T16:54:20.220Z,14.57
2022-12-13T16:56:47.560Z,7.93
2022-12-13T16:59:16.471Z,15.30
2022-12-13T17:01:45.176Z,17.42
2022-12-13T17:04:19.297Z,21.50
2022-12-13T17:06:47.001Z,19.13
2022-12-13T17:09:13.600Z,16.83
2022-12-13T17:11:40.406Z,18.65
2022-12-13T17:14:07.040Z,18.63
2022-12-13T17:16:33.703Z,19.65
2022-12-13T17:19:00.353Z,16.27
2022-12-13T17:21:29.580Z,10.45
2022-12-13T17:24:01.106Z,8.35
2022-12-13T17:26:28.527Z,8.32
2022-12-13T17:28:55.205Z,13.00
2022-12-13T17:31:21.865Z,9.55
2022-12-13T17:33:48.504Z,8.82
2022-12-13T17:36:16.368Z,21.23
2022-12-13T17:38:45.557Z,9.27
2022-12-13T17:41:13.746Z,10.25
2022-12-13T17:43:41.770Z,6.53
2022-12-13T17:46:14.468Z,15.70
2022-12-13T17:48:42.305Z,17.75
2022-12-13T17:51:10.710Z,7.85
2022-12-13T17:53:39.581Z,8.40
2022-12-13T17:56:10.587Z,15.85
2022-12-13T17:58:37.566Z,7.63
2022-12-13T18:01:15.337Z,7.10
2022-12-13T18:03:42.168Z,6.65
2022-12-13T18:06:09.141Z,6.53
2022-12-13T18:08:37.070Z,8.77
2022-12-13T18:13:55.444Z,6.28
2022-12-13T18:16:24.153Z,11.40
2022-12-13T18:18:55.427Z,6.85
2022-12-13T18:21:23.372Z,9.32
2022-12-13T18:23:55.208Z,8.32
2022-12-13T18:26:24.616Z,10.30
2022-12-13T18:28:52.132Z,6.43
2022-12-13T18:31:23.007Z,6.88
2022-12-13T18:33:51.107Z,8.50
2022-12-13T18:36:19.009Z,7.25
2022-12-13T18:38:46.637Z,6.78
2022-12-13T18:41:16.498Z,7.18
2022-12-13T18:43:43.912Z,6.70
2022-12-13T18:46:11.761Z,9.45
2022-12-13T18:48:38.580Z,7.35
2022-12-13T18:51:07.575Z,12.25
2022-12-13T18:53:35.532Z,6.57
2022-12-13T18:56:18.222Z,7.03
2022-12-13T18:58:46.110Z,8.07
2022-12-13T19:01:15.391Z,6.80
2022-12-13T19:03:44.886Z,6.70
2022-12-13T19:06:19.087Z,9.05
2022-12-13T19:08:50.710Z,10.57
2022-12-13T19:11:18.315Z,7.93
2022-12-13T19:13:44.993Z,18.55
2022-12-13T19:16:14.199Z,14.77
2022-12-13T19:18:41.284Z,13.70
2022-12-13T19:21:11.527Z,6.22
2022-12-13T19:23:40.736Z,6.47
2022-12-13T19:26:13.876Z,12.40
2022-12-13T19:28:41.830Z,11.13
2022-12-13T19:31:11.165Z,13.93
2022-12-13T19:33:38.059Z,10.85
2022-12-13T19:36:05.931Z,6.57
2022-12-13T19:38:34.359Z,6.70
2022-12-13T19:41:07.069Z,7.53
2022-12-13T19:43:33.660Z,11.20
2022-12-13T19:46:00.779Z,7.25
2022-12-13T19:48:27.362Z,15.60
2022-12-13T19:50:59.660Z,12.32
2022-12-13T19:53:27.458Z,7.90
2022-12-13T19:55:54.467Z,9.55
2022-12-13T19:58:21.213Z,8.38
2022-12-13T20:00:47.812Z,10.80
2022-12-13T20:03:14.388Z,9.82
2022-12-13T20:05:45.504Z,7.15
2022-12-13T20:08:12.444Z,6.20
2022-12-13T20:10:39.569Z,9.27
2022-12-13T20:13:06.206Z,8.18
2022-12-13T20:15:32.762Z,5.72
2022-12-13T20:17:59.607Z,6.65
2022-12-13T20:20:40.947Z,6.25
2022-12-13T20:23:12.973Z,5.78
2022-12-13T20:25:39.610Z,8.70
2022-12-13T20:28:09.321Z,17.35
2022-12-13T20:30:39.363Z,11.07
2022-12-13T20:33:06.060Z,8.48
2022-12-13T20:35:32.657Z,7.47
2022-12-13T20:37:59.262Z,6.30
2022-12-13T20:40:26.467Z,10.05
2022-12-13T20:42:53.148Z,10.50
2022-12-13T20:45:19.728Z,8.80
2022-12-13T20:47:46.310Z,7.35
2022-12-13T20:50:12.938Z,6.03
2022-12-13T20:52:39.521Z,23.98
2022-12-13T20:55:06.674Z,29.98
2022-12-13T20:57:33.321Z,32.08
2022-12-13T20:59:59.895Z,36.55
2022-12-13T21:02:27.243Z,36.67
2022-12-13T21:04:53.910Z,37.75
2022-12-13T21:07:40.466Z,36.55
2022-12-13T21:10:07.613Z,39.17
2022-12-13T21:12:34.162Z,35.80
2022-12-13T21:15:00.749Z,28.85
2022-12-13T21:17:27.320Z,28.27
2022-12-13T21:19:53.897Z,37.38
2022-12-13T21:22:21.526Z,33.72
2022-12-13T21:24:48.095Z,28.77
2022-12-13T21:27:14.710Z,34.65
2022-12-13T21:29:41.280Z,26.85
2022-12-13T21:32:08.005Z,32.35
2022-12-13T21:34:34.706Z,30.35
2022-12-13T21:37:01.289Z,31.85
2022-12-13T21:39:28.470Z,27.70
2022-12-13T21:41:55.954Z,30.92
2022-12-13T21:44:23.084Z,27.35
2022-12-13T21:49:36.815Z,30.33
2022-12-13T21:52:03.529Z,25.20
2022-12-13T21:54:30.153Z,27.27
2022-12-13T21:57:15.490Z,26.38
2022-12-13T21:59:42.030Z,25.75
2022-12-13T22:02:15.995Z,31.58
2022-12-13T22:04:54.915Z,29.67
2022-12-13T22:07:32.628Z,24.42
2022-12-13T22:10:00.712Z,27.05
2022-12-13T22:12:38.898Z,26.77
2022-12-13T22:15:09.156Z,21.55
2022-12-13T22:17:36.937Z,24.85
2022-12-13T22:20:13.495Z,24.08
2022-12-13T22:22:41.382Z,24.15
2022-12-13T22:25:08.707Z,21.63
2022-12-13T22:27:35.286Z,21.67
2022-12-13T22:30:01.894Z,19.13
2022-12-13T22:32:30.340Z,25.02
2022-12-13T22:34:57.399Z,19.20
2022-12-13T22:37:24.693Z,22.00
2022-12-13T22:39:51.279Z,19.70
2022-12-13T22:42:17.873Z,20.42
2022-12-13T22:44:44.500Z,21.95
2022-12-13T22:47:11.083Z,20.02
2022-12-13T22:49:37.683Z,20.25
2022-12-13T22:52:04.468Z,17.95
2022-12-13T22:54:31.040Z,16.63
2022-12-13T22:56:57.607Z,19.88
2022-12-13T22:59:24.227Z,18.65
2022-12-13T23:01:54.298Z,18.90
2022-12-13T23:04:23.476Z,17.73
2022-12-13T23:06:50.127Z,18.52
2022-12-13T23:09:16.728Z,14.88
2022-12-13T23:12:02.067Z,18.88
2022-12-13T23:14:31.706Z,17.38
2022-12-13T23:16:58.995Z,16.35
2022-12-13T23:19:49.621Z,15.57
2022-12-13T23:22:12.778Z,15.00
2022-12-13T23:24:39.404Z,15.48
2022-12-13T23:27:06.127Z,16.77
2022-12-13T23:29:32.846Z,13.00
2022-12-13T23:31:59.440Z,14.40
2022-12-13T23:34:26.348Z,16.20
2022-12-13T23:36:52.968Z,16.90
2022-12-13T23:39:19.575Z,15.48
2022-12-13T23:41:46.170Z,19.67
2022-12-13T23:44:12.881Z,16.42
2022-12-13T23:46:39.487Z,12.57
2022-12-13T23:49:06.562Z,15.00
2022-12-13T23:51:34.395Z,13.50
2022-12-13T23:54:01.301Z,13.05
2022-12-13T23:56:29.036Z,13.77
2022-12-13T23:58:55.950Z,16.80
